Terminal Aerodrome Forecast
Issued by NWS Grand Forks, ND

Home | Current Version | Previous Version | Text Only | Print | Product List | Glossary On
Versions: 1 2 3 4 5 6 7 8 9 10 11 12 13 14 15 16
000
FTUS43 KFGF 250500
TAFGFK
TAF
KGFK 250524Z 2506/2606 VRB04KT P6SM OVC050
     FM250900 VRB04KT P6SM OVC025
     FM260300 02011KT 3SM -SN OVC015=

USA.gov is the U.S. government's official web portal to all federal, state and local government web resources and services.